Accueil
METAR-TAF:

METAR-TAF

Aéroports :

Barcelone, Espagne

Aéroport de Barcelone-El Prat

latitude: 41-17N, longitude: 002-04E, altitude: 4 m

Observation

Le bulletin a été fait il y a 17 minutes, à 03:30 UTC
Vent 6 kt de nord-ouest
Température 15°C
Humidité 72%
Pression 1018 hPa
Visibilité 10 km ou plus
pas de nuages en-dessous de 1500 mètres et pas de cumulonimbus.

METAR: LEBL 230330Z 32006KT CAVOK 15/10 Q1018 NOSIG

Heure: 05:47 (03:47 UTC)

Prévision

Le bulletin a été fait il y a 4 heures et 47 minutes, à 23:00 UTC
Prévision valable du 23 à 00 UTC au 23 à 24 UTC
Vent 3 kt de nord/nord-ouest
Visibilité 10 km ou plus
Quelques nuages à une hauteur de 4000 ft
Evoluant progressivement
du 23 à 06 UTC au 23 à 08 UTC
Vent 7 kt de sud/sud-est
Evoluant progressivement
du 23 à 17 UTC au 23 à 19 UTC
Vent 5 kt de nord-est

TAF: LEBL 222300Z 2300/2324 33003KT 9999 FEW040 TX22/2312Z TN13/2306Z BECMG 2306/2308 16007KT BECMG 2317/2319 05005KT

Observations et prévisions météorologiques de plus de 4000 aéroports (messages METAR et TAF).

Les stations disponibles sont représentées par des disques jaunes et rouges sur la carte.

Passer la souris dessus pour voir le nom de la station.

Cliquer dessus pour voir les observations et prévisions météorologiques.

Pour changer de carte: cliquez sur les boutons verts avec une croix noire pour zoomer, sur le bouton vert avec un tiret pour effectuer un zoom arrière, ou sur les flèches vertes pour les cartes adjacentes.


METAR-TAF: